createdAt,value
2016-10-04T00:00:25.412Z,16.3
2016-10-04T00:01:25.113Z,16.44
2016-10-04T00:02:24.727Z,16.26
2016-10-04T00:03:24.351Z,16.26
2016-10-04T00:04:24.312Z,16.23
2016-10-04T00:05:25.146Z,16.34
2016-10-04T00:06:24.245Z,16.27
2016-10-04T00:07:24.250Z,16.22
2016-10-04T00:08:38.913Z,16.34
2016-10-04T00:09:24.223Z,16.3
2016-10-04T00:10:39.632Z,16.45
2016-10-04T00:11:24.127Z,16.67
2016-10-04T00:12:24.064Z,16.7
2016-10-04T00:13:24.055Z,16.89
2016-10-04T00:14:38.747Z,16.53
2016-10-04T00:15:24.042Z,16.48
2016-10-04T00:16:24.297Z,16.34
2016-10-04T00:17:24.328Z,16.25
2016-10-04T00:18:23.948Z,16.16
2016-10-04T00:19:24.241Z,16.11
2016-10-04T00:20:23.871Z,16.09
2016-10-04T00:21:24.199Z,16.15
2016-10-04T00:22:24.248Z,16.2
2016-10-04T00:23:38.487Z,16.18
2016-10-04T00:24:23.739Z,16.16
2016-10-04T00:25:23.865Z,16.26
2016-10-04T00:26:23.721Z,16.25
2016-10-04T00:27:24.087Z,16.26
2016-10-04T00:28:23.667Z,16.5
2016-10-04T00:29:23.612Z,16.73
2016-10-04T00:30:23.525Z,16.67
2016-10-04T00:31:23.558Z,16.55
2016-10-04T00:32:23.544Z,16.6
2016-10-04T00:33:23.473Z,16.4
2016-10-04T00:34:23.469Z,16.49
2016-10-04T00:35:23.452Z,16.63
2016-10-04T00:36:23.411Z,16.58
2016-10-04T00:37:23.846Z,16.5
2016-10-04T00:38:23.359Z,16.44
2016-10-04T00:39:23.316Z,16.55
2016-10-04T00:40:23.686Z,16.49
2016-10-04T00:41:23.258Z,16.48
2016-10-04T00:42:23.221Z,16.49
2016-10-04T00:43:23.195Z,16.45
2016-10-04T00:44:23.173Z,16.31
2016-10-04T00:45:23.148Z,16.44
2016-10-04T00:46:23.142Z,16.62
2016-10-04T00:47:23.097Z,16.68
2016-10-04T00:48:37.901Z,16.59
2016-10-04T00:49:23.030Z,16.5
2016-10-04T00:50:23.022Z,16.48
2016-10-04T00:51:22.973Z,16.48
2016-10-04T00:52:22.954Z,16.26
2016-10-04T00:53:22.931Z,16.26
2016-10-04T00:54:23.351Z,16.25
2016-10-04T00:55:23.184Z,16.34
2016-10-04T00:56:22.779Z,16.38
2016-10-04T00:57:22.804Z,16.53
2016-10-04T00:58:22.774Z,16.44
2016-10-04T00:59:22.784Z,16.38
2016-10-04T01:00:23.915Z,16.42
2016-10-04T01:01:22.701Z,16.41
2016-10-04T01:02:22.699Z,16.52
2016-10-04T01:03:22.641Z,16.45
2016-10-04T01:04:22.592Z,16.42
2016-10-04T01:05:22.558Z,16.23
2016-10-04T01:06:22.583Z,16.45
2016-10-04T01:07:37.236Z,16.34
2016-10-04T01:08:22.662Z,16.38
2016-10-04T01:09:22.464Z,16.25
2016-10-04T01:10:22.429Z,16.14
2016-10-04T01:11:22.455Z,15.97
2016-10-04T01:12:23.060Z,15.96
2016-10-04T01:13:22.351Z,16.11
2016-10-04T01:14:22.307Z,16.2
2016-10-04T01:15:22.295Z,16.15
2016-10-04T01:16:22.623Z,16.11
2016-10-04T01:17:22.252Z,16.18
2016-10-04T01:18:22.567Z,16.04
2016-10-04T01:19:22.169Z,16.04
2016-10-04T01:20:22.153Z,16
2016-10-04T01:21:22.475Z,15.99
2016-10-04T01:22:22.084Z,15.88
2016-10-04T01:23:22.054Z,15.97
2016-10-04T01:24:22.409Z,15.89
2016-10-04T01:25:22.010Z,15.84
2016-10-04T01:26:21.975Z,15.84
2016-10-04T01:27:21.936Z,15.84
2016-10-04T01:28:21.927Z,16.03
2016-10-04T01:29:21.990Z,15.97
2016-10-04T01:30:21.853Z,15.82
2016-10-04T01:31:22.140Z,15.68
2016-10-04T01:32:21.828Z,15.79
2016-10-04T01:33:36.603Z,15.75
2016-10-04T01:34:21.727Z,15.75
2016-10-04T01:35:21.720Z,15.78
2016-10-04T01:36:22.042Z,15.85
2016-10-04T01:37:21.653Z,15.93
2016-10-04T01:38:21.726Z,15.96
2016-10-04T01:39:21.622Z,15.89
2016-10-04T01:40:36.588Z,15.81
2016-10-04T01:41:21.535Z,15.75
2016-10-04T01:42:21.560Z,15.67
2016-10-04T01:43:21.578Z,15.74
2016-10-04T01:44:21.811Z,15.81
2016-10-04T01:45:21.535Z,15.85
2016-10-04T01:46:21.756Z,15.81
2016-10-04T01:47:36.044Z,15.59
2016-10-04T01:48:21.335Z,15.57
2016-10-04T01:49:22.003Z,15.7
2016-10-04T01:50:21.731Z,15.6
2016-10-04T01:51:21.249Z,15.61
2016-10-04T01:52:21.228Z,15.74
2016-10-04T01:53:21.258Z,15.75
2016-10-04T01:54:21.192Z,15.86
2016-10-04T01:55:21.145Z,16.11
2016-10-04T01:56:21.114Z,16.07
2016-10-04T01:57:21.082Z,16.15
2016-10-04T01:58:21.121Z,16.07
2016-10-04T01:59:21.370Z,16.07
2016-10-04T02:00:21.687Z,16.22
2016-10-04T02:01:20.967Z,16.2
2016-10-04T02:02:20.934Z,16.31
2016-10-04T02:03:21.256Z,16.37
2016-10-04T02:04:20.870Z,16.23
2016-10-04T02:05:20.843Z,16.31
2016-10-04T02:06:20.801Z,16.37
2016-10-04T02:07:20.780Z,16.16
2016-10-04T02:08:20.837Z,16.14
2016-10-04T02:09:20.718Z,16.2
2016-10-04T02:10:20.697Z,16.38
2016-10-04T02:11:20.683Z,16.52
2016-10-04T02:12:20.627Z,16.42
2016-10-04T02:13:20.613Z,16.37
2016-10-04T02:14:20.581Z,16.4
2016-10-04T02:15:35.267Z,16.52
2016-10-04T02:16:20.710Z,16.55
2016-10-04T02:18:20.468Z,16.6
2016-10-04T02:19:20.773Z,16.42
2016-10-04T02:20:20.407Z,16.48
2016-10-04T02:21:20.741Z,16.42
2016-10-04T02:22:20.345Z,16.56
2016-10-04T02:23:20.700Z,16.48
2016-10-04T02:24:20.300Z,16.33
2016-10-04T02:25:20.273Z,16.25
2016-10-04T02:26:20.239Z,16.48
2016-10-04T02:27:20.211Z,16.67
2016-10-04T02:28:20.197Z,16.6
2016-10-04T02:29:20.494Z,16.44
2016-10-04T02:30:20.187Z,16.41
2016-10-04T02:31:20.091Z,16.55
2016-10-04T02:32:20.131Z,16.6
2016-10-04T02:33:20.024Z,16.48
2016-10-04T02:34:20.011Z,16.4
2016-10-04T02:35:20.050Z,16.63
2016-10-04T02:36:19.979Z,16.6
2016-10-04T02:37:19.927Z,16.49
2016-10-04T02:38:19.887Z,16.3
2016-10-04T02:39:19.902Z,16.07
2016-10-04T02:40:19.816Z,16.18
2016-10-04T02:41:20.527Z,16.11
2016-10-04T02:42:19.785Z,16.16
2016-10-04T02:43:19.736Z,16.27
2016-10-04T02:44:19.761Z,16.27
2016-10-04T02:45:19.788Z,16.26
2016-10-04T02:46:19.694Z,16.2
2016-10-04T02:47:19.617Z,16.18
2016-10-04T02:48:19.604Z,16.14
2016-10-04T02:49:19.567Z,15.97
2016-10-04T02:50:19.925Z,16.01
2016-10-04T02:51:19.523Z,16.09
2016-10-04T02:52:19.490Z,16.09
2016-10-04T02:54:19.450Z,16.18
2016-10-04T02:55:19.389Z,16.23
2016-10-04T02:56:19.363Z,16.35
2016-10-04T02:57:19.704Z,16.22
2016-10-04T02:58:34.333Z,16.11
2016-10-04T02:59:19.297Z,16.11
2016-10-04T03:00:19.248Z,16.07
2016-10-04T03:01:19.285Z,16.07
2016-10-04T03:02:19.192Z,15.99
2016-10-04T03:03:19.183Z,16.01
2016-10-04T03:04:19.173Z,16.06
2016-10-04T03:05:19.625Z,16.15
2016-10-04T03:06:19.121Z,16.16
2016-10-04T03:07:33.842Z,16.27
2016-10-04T03:08:19.075Z,16.38
2016-10-04T03:09:33.716Z,16.18
2016-10-04T03:10:19.276Z,16.25
2016-10-04T03:11:18.965Z,16.38
2016-10-04T03:12:19.641Z,16.25
2016-10-04T03:13:18.878Z,16.26
2016-10-04T03:14:18.846Z,16.26
2016-10-04T03:15:18.919Z,16.45
2016-10-04T03:16:18.902Z,16.44
2016-10-04T03:17:18.789Z,16.49
2016-10-04T03:18:33.460Z,16.59
2016-10-04T03:19:18.746Z,16.62
2016-10-04T03:20:23.754Z,16.81
2016-10-04T03:21:18.667Z,16.83
2016-10-04T03:22:18.640Z,16.85
2016-10-04T03:23:18.626Z,16.88
2016-10-04T03:24:18.852Z,16.71
2016-10-04T03:25:18.538Z,16.56
2016-10-04T03:26:18.520Z,16.45
2016-10-04T03:27:33.204Z,16.53
2016-10-04T03:28:18.433Z,16.73
2016-10-04T03:29:18.794Z,16.83
2016-10-04T03:30:18.389Z,16.63
2016-10-04T03:31:18.716Z,16.58
2016-10-04T03:32:18.774Z,16.41
2016-10-04T03:33:18.355Z,16.38
2016-10-04T03:34:18.361Z,16.41
2016-10-04T03:35:18.250Z,16.5
2016-10-04T03:36:18.265Z,16.63
2016-10-04T03:37:18.202Z,16.49
2016-10-04T03:38:18.947Z,16.48
2016-10-04T03:39:18.164Z,16.42
2016-10-04T03:40:18.109Z,16.68
2016-10-04T03:41:18.099Z,16.88
2016-10-04T03:42:18.061Z,16.62
2016-10-04T03:43:18.098Z,16.49
2016-10-04T03:44:18.030Z,16.42
2016-10-04T03:46:18.242Z,16.37
2016-10-04T03:47:18.578Z,16.58
2016-10-04T03:48:17.876Z,16.52
2016-10-04T03:49:17.857Z,16.34
2016-10-04T03:50:17.817Z,16.38
2016-10-04T03:51:17.790Z,16.52
2016-10-04T03:52:17.771Z,16.38
2016-10-04T03:53:17.733Z,16.37
2016-10-04T03:54:32.473Z,16.23
2016-10-04T03:55:17.680Z,16.31
2016-10-04T03:56:17.755Z,16.5
2016-10-04T03:57:17.822Z,16.5
2016-10-04T03:58:17.735Z,16.34
2016-10-04T03:59:17.619Z,16.26
2016-10-04T04:00:17.648Z,16.42
2016-10-04T04:01:18.121Z,16.37
2016-10-04T04:02:17.510Z,16.63
2016-10-04T04:04:17.714Z,16.56
2016-10-04T04:05:17.660Z,16.59
2016-10-04T04:06:17.548Z,16.5
2016-10-04T04:07:17.793Z,16.4
2016-10-04T04:08:17.355Z,16.49
2016-10-04T04:09:18.161Z,16.56
2016-10-04T04:10:17.356Z,16.59
2016-10-04T04:11:17.646Z,16.68
2016-10-04T04:12:17.219Z,16.59
2016-10-04T04:13:17.181Z,16.55
2016-10-04T04:14:17.291Z,16.7
2016-10-04T04:15:17.490Z,16.81
2016-10-04T04:16:17.160Z,16.85
2016-10-04T04:17:17.088Z,16.75
2016-10-04T04:18:18.020Z,16.8
2016-10-04T04:19:17.038Z,16.74
2016-10-04T04:20:17.444Z,16.68
2016-10-04T04:21:17.026Z,16.68
2016-10-04T04:22:16.988Z,16.68
2016-10-04T04:23:31.607Z,16.59
2016-10-04T04:24:17.355Z,16.65
2016-10-04T04:25:32.359Z,16.85
2016-10-04T04:26:17.329Z,16.88
2016-10-04T04:27:17.287Z,16.85
2016-10-04T04:28:16.738Z,17.03
2016-10-04T04:29:16.851Z,16.95
2016-10-04T04:30:16.743Z,16.93
2016-10-04T04:31:16.753Z,16.86
2016-10-04T04:32:16.770Z,16.96
2016-10-04T04:33:32.304Z,16.98
2016-10-04T04:34:16.654Z,16.81
2016-10-04T04:35:16.720Z,16.75
2016-10-04T04:36:31.264Z,16.88
2016-10-04T04:37:16.471Z,16.95
2016-10-04T04:38:16.477Z,16.96
2016-10-04T04:39:16.789Z,16.96
2016-10-04T04:40:16.435Z,17.11
2016-10-04T04:41:16.534Z,17.06
2016-10-04T04:42:17.112Z,16.95
2016-10-04T04:43:16.304Z,16.78
2016-10-04T04:44:16.297Z,16.9
2016-10-04T04:45:17.199Z,17.06
2016-10-04T04:46:16.982Z,16.98
2016-10-04T04:47:16.212Z,16.98
2016-10-04T04:48:16.629Z,17.08
2016-10-04T04:49:16.526Z,17.13
2016-10-04T04:50:17.038Z,17.17
2016-10-04T04:51:31.108Z,17.33
2016-10-04T04:52:16.133Z,17.13
2016-10-04T04:54:16.122Z,17.13
2016-10-04T04:55:16.006Z,17.07
2016-10-04T04:56:15.991Z,17.07
2016-10-04T04:57:16.023Z,17.06
2016-10-04T04:58:15.885Z,17.06
2016-10-04T04:59:15.850Z,17.23
2016-10-04T05:00:15.851Z,17.17
2016-10-04T05:01:15.781Z,17.07
2016-10-04T05:02:15.760Z,17.06
2016-10-04T05:03:15.728Z,16.93
2016-10-04T05:04:15.699Z,16.89
2016-10-04T05:05:15.743Z,16.96
2016-10-04T05:06:15.669Z,17.06
2016-10-04T05:07:15.999Z,16.93
2016-10-04T05:08:16.273Z,16.98
2016-10-04T05:09:15.667Z,16.88
2016-10-04T05:10:15.601Z,16.89
2016-10-04T05:12:15.475Z,16.95
2016-10-04T05:14:15.794Z,17
2016-10-04T05:15:30.445Z,17.11
2016-10-04T05:16:15.672Z,17.14
2016-10-04T05:17:30.046Z,17.13
2016-10-04T05:18:15.302Z,17.2
2016-10-04T05:19:29.985Z,17.2
2016-10-04T05:20:15.246Z,17.25
2016-10-04T05:21:15.373Z,17.1
2016-10-04T05:22:15.261Z,17.15
2016-10-04T05:23:15.600Z,17.18
2016-10-04T05:24:15.186Z,16.99
2016-10-04T05:25:15.121Z,17.14
2016-10-04T05:26:15.156Z,17.06
2016-10-04T05:27:15.053Z,17.15
2016-10-04T05:28:15.155Z,17.17
2016-10-04T05:29:14.995Z,17.26
2016-10-04T05:30:15.347Z,17.28
2016-10-04T05:31:14.928Z,17.25
2016-10-04T05:32:29.708Z,17.2
2016-10-04T05:33:14.871Z,17.33
2016-10-04T05:34:14.889Z,17.15
2016-10-04T05:35:14.856Z,17.2
2016-10-04T05:36:14.800Z,17.15
2016-10-04T05:37:14.769Z,17.3
2016-10-04T05:38:15.148Z,17.29
2016-10-04T05:39:14.716Z,17.4
2016-10-04T05:40:14.726Z,17.3
2016-10-04T05:41:14.697Z,17.22
2016-10-04T05:42:14.633Z,17.17
2016-10-04T05:43:29.697Z,17.14
2016-10-04T05:44:14.660Z,17.11
2016-10-04T05:45:14.604Z,17.2
2016-10-04T05:46:14.529Z,17.13
2016-10-04T05:47:14.953Z,17.06
2016-10-04T05:49:14.459Z,17.06
2016-10-04T05:50:29.107Z,17.14
2016-10-04T05:51:14.871Z,17.14
2016-10-04T05:52:14.784Z,17.25
2016-10-04T05:53:14.316Z,17.25
2016-10-04T05:54:14.303Z,17.22
2016-10-04T05:55:14.307Z,17.14
2016-10-04T05:56:14.297Z,17.17
2016-10-04T05:57:14.250Z,17.18
2016-10-04T05:58:14.212Z,17.25
2016-10-04T05:59:14.232Z,17.17
2016-10-04T06:00:14.292Z,17.28
2016-10-04T06:01:14.614Z,17.29
2016-10-04T06:02:14.586Z,17.26
2016-10-04T06:03:44.676Z,17.32
2016-10-04T08:34:09.753Z,18.5
2016-10-04T08:35:09.900Z,18.46
2016-10-04T08:36:10.776Z,18.27
2016-10-04T08:37:09.319Z,18.47
2016-10-04T08:38:09.339Z,18.61
2016-10-04T08:39:09.346Z,18.54
2016-10-04T08:40:09.871Z,18.47
2016-10-04T08:41:09.552Z,18.5
2016-10-04T08:42:09.358Z,18.4
2016-10-04T08:43:09.227Z,18.5
2016-10-04T08:44:09.235Z,18.42
2016-10-04T08:45:09.503Z,18.57
2016-10-04T08:46:24.714Z,18.58
2016-10-04T08:47:26.475Z,18.67
2016-10-04T08:48:24.433Z,18.73
2016-10-04T08:49:16.915Z,18.77
2016-10-04T08:50:09.865Z,18.73
2016-10-04T08:51:08.912Z,18.83
2016-10-04T08:52:10.018Z,18.86
2016-10-04T08:53:23.579Z,18.97
2016-10-04T08:54:09.421Z,18.86
2016-10-04T08:55:09.763Z,18.83
2016-10-04T08:56:09.144Z,18.94
2016-10-04T08:57:08.810Z,18.84
2016-10-04T08:58:09.498Z,18.76
2016-10-04T08:59:08.625Z,18.87
2016-10-04T09:00:09.106Z,18.8
2016-10-04T09:01:09.337Z,18.84
2016-10-04T09:02:10.630Z,18.94
2016-10-04T09:03:09.144Z,18.84
2016-10-04T09:04:08.642Z,18.83
2016-10-04T09:05:08.880Z,18.82
2016-10-04T09:06:08.483Z,19.08
2016-10-04T09:07:08.588Z,19.08
2016-10-04T09:08:08.474Z,18.99
2016-10-04T09:09:08.563Z,19.18
2016-10-04T09:10:08.655Z,19.14
2016-10-04T09:11:08.336Z,18.97
2016-10-04T09:12:08.302Z,18.98
2016-10-04T09:13:08.296Z,18.97
2016-10-04T09:14:08.262Z,18.91
2016-10-04T09:15:08.261Z,19.05
2016-10-04T09:16:08.609Z,19.17
2016-10-04T09:17:08.576Z,19.05
2016-10-04T09:18:08.196Z,19.2
2016-10-04T09:19:08.930Z,19.13
2016-10-04T09:20:08.158Z,19.08
2016-10-04T09:21:08.054Z,19.15
2016-10-04T09:22:08.103Z,19.05
2016-10-04T09:23:08.597Z,19.11
2016-10-04T09:24:07.926Z,19.01
2016-10-04T09:25:08.317Z,19.06
2016-10-04T09:26:07.977Z,19.2
2016-10-04T09:27:07.895Z,19.21
2016-10-04T09:28:07.878Z,19.35
2016-10-04T09:29:07.823Z,19.31
2016-10-04T09:30:07.850Z,19.42
2016-10-04T09:31:08.263Z,19.32
2016-10-04T09:32:08.503Z,19.17
2016-10-04T09:33:08.522Z,19.08
2016-10-04T09:34:08.496Z,19.05
2016-10-04T09:35:22.450Z,19.14
2016-10-04T09:36:08.383Z,19.33
2016-10-04T09:37:22.323Z,19.39
2016-10-04T09:38:08.852Z,19.4
2016-10-04T09:39:07.567Z,19.54
2016-10-04T09:40:07.552Z,19.54
2016-10-04T09:41:07.676Z,19.53
2016-10-04T09:42:07.452Z,19.65
2016-10-04T09:43:07.490Z,19.55
2016-10-04T09:44:08.225Z,19.4
2016-10-04T09:45:07.438Z,19.39
2016-10-04T09:46:07.405Z,19.43
2016-10-04T09:47:07.618Z,19.58
2016-10-04T09:48:07.408Z,19.63
2016-10-04T09:49:07.564Z,19.61
2016-10-04T09:50:07.288Z,19.66
2016-10-04T09:51:07.642Z,19.61
2016-10-04T09:52:07.368Z,19.65
2016-10-04T09:53:07.291Z,19.5
2016-10-04T09:54:07.477Z,19.54
2016-10-04T09:55:07.111Z,19.5
2016-10-04T09:56:07.136Z,19.5
2016-10-04T09:57:07.733Z,19.5
2016-10-04T09:58:07.945Z,19.43
2016-10-04T09:59:07.315Z,19.38
2016-10-04T10:00:07.448Z,19.42
2016-10-04T10:01:13.316Z,19.4
2016-10-04T10:02:07.164Z,19.47
2016-10-04T10:03:06.990Z,19.46
2016-10-04T10:04:06.971Z,19.48
2016-10-04T10:05:06.810Z,19.4
2016-10-04T10:06:07.077Z,19.36
2016-10-04T10:07:07.220Z,19.28
2016-10-04T10:08:07.041Z,19.25
2016-10-04T10:09:06.753Z,19.36
2016-10-04T10:10:21.702Z,19.36
2016-10-04T10:11:06.761Z,19.47
2016-10-04T10:12:07.292Z,19.54
2016-10-04T10:13:07.074Z,19.61
2016-10-04T10:14:06.849Z,19.7
2016-10-04T10:15:06.830Z,19.75
2016-10-04T10:16:06.862Z,19.69
2016-10-04T10:17:06.934Z,19.58
2016-10-04T10:18:06.599Z,19.53
2016-10-04T10:19:07.082Z,19.5
2016-10-04T10:21:21.241Z,19.73
2016-10-04T10:22:08.683Z,19.91
2016-10-04T10:23:06.657Z,19.78
2016-10-04T10:24:07.452Z,19.93
2016-10-04T10:25:07.625Z,19.84
2016-10-04T10:26:06.327Z,19.72
2016-10-04T10:27:06.253Z,19.76
2016-10-04T10:28:07.766Z,19.91
2016-10-04T10:29:07.015Z,19.98
2016-10-04T10:30:06.824Z,19.98
2016-10-04T10:31:06.605Z,19.95
2016-10-04T10:32:20.819Z,19.94
2016-10-04T10:33:06.252Z,20
2016-10-04T10:34:06.117Z,20.03
2016-10-04T10:35:06.105Z,19.9
2016-10-04T10:36:06.551Z,19.93
2016-10-04T10:37:06.010Z,20.02
2016-10-04T10:38:05.927Z,20.09
2016-10-04T10:39:06.313Z,20.08
2016-10-04T10:40:05.886Z,19.97
2016-10-04T10:41:05.845Z,20.12
2016-10-04T10:42:07.204Z,20.09
2016-10-04T10:43:06.109Z,20.15
2016-10-04T10:44:05.805Z,20.15
2016-10-04T10:45:06.886Z,20.27
2016-10-04T10:46:05.822Z,20.49
2016-10-04T10:47:06.087Z,20.38
2016-10-04T10:48:20.360Z,20.38
2016-10-04T10:49:06.017Z,20.41
2016-10-04T10:50:05.673Z,20.53
2016-10-04T10:51:05.712Z,20.84
2016-10-04T10:52:20.326Z,20.8
2016-10-04T10:53:06.936Z,20.86
2016-10-04T10:54:05.590Z,20.74
2016-10-04T10:55:05.547Z,20.87
2016-10-04T10:56:05.676Z,20.83
2016-10-04T10:57:05.740Z,20.89
2016-10-04T10:58:05.420Z,20.87
2016-10-04T11:00:05.911Z,20.89
2016-10-04T11:01:05.559Z,20.87
2016-10-04T11:02:05.710Z,20.96
2016-10-04T11:03:20.006Z,21.08
2016-10-04T11:04:05.648Z,21.17
2016-10-04T11:05:05.360Z,21.14
2016-10-04T11:06:19.921Z,21.27
2016-10-04T11:07:05.541Z,21.27
2016-10-04T11:08:05.307Z,21.3
2016-10-04T11:09:05.229Z,21.35
2016-10-04T11:10:05.615Z,21.39
2016-10-04T11:11:05.247Z,21.56
2016-10-04T11:12:05.282Z,21.61
2016-10-04T11:13:05.171Z,21.54
2016-10-04T11:14:05.312Z,21.42
2016-10-04T11:15:05.320Z,21.48
2016-10-04T11:16:05.179Z,21.39
2016-10-04T11:18:05.461Z,21.01
2016-10-04T11:19:05.065Z,21.01
2016-10-04T11:20:05.404Z,20.83
2016-10-04T11:21:05.080Z,20.96
2016-10-04T11:22:19.437Z,20.99
2016-10-04T11:23:05.266Z,21.09
2016-10-04T11:24:04.983Z,21.24
2016-10-04T11:25:05.140Z,21.06
2016-10-04T11:26:04.691Z,20.98
2016-10-04T11:27:04.612Z,20.86
2016-10-04T11:28:05.164Z,20.91
2016-10-04T11:29:04.510Z,21.01
2016-10-04T11:31:04.486Z,20.84
2016-10-04T11:32:19.244Z,20.74
2016-10-04T11:33:04.510Z,20.71
2016-10-04T11:34:05.292Z,20.68
2016-10-04T11:35:04.597Z,20.53
2016-10-04T11:36:04.728Z,20.5
2016-10-04T11:37:04.282Z,20.5
2016-10-04T11:38:04.675Z,20.56
2016-10-04T11:39:04.611Z,20.61
2016-10-04T11:40:04.564Z,20.53
2016-10-04T11:41:04.223Z,20.74
2016-10-04T11:42:04.161Z,20.83
2016-10-04T11:43:04.142Z,20.84
2016-10-04T11:44:04.108Z,20.77
2016-10-04T11:45:04.148Z,20.79
2016-10-04T11:46:04.134Z,20.87
2016-10-04T11:47:04.060Z,20.91
2016-10-04T11:48:04.009Z,20.84
2016-10-04T11:49:03.938Z,20.74
2016-10-04T11:50:03.933Z,20.66
2016-10-04T11:51:03.966Z,20.74
2016-10-04T11:52:03.969Z,20.71
2016-10-04T11:53:04.055Z,20.5
2016-10-04T11:54:03.940Z,20.72
2016-10-04T11:55:03.805Z,21.05
2016-10-04T11:56:03.820Z,21.01
2016-10-04T11:57:03.755Z,21.13
2016-10-04T11:58:03.765Z,21.36
2016-10-04T11:59:03.905Z,21.32
2016-10-04T12:00:04.081Z,21.32
2016-10-04T12:01:03.702Z,21.32
2016-10-04T12:02:03.832Z,21.26
2016-10-04T12:03:03.608Z,21.59
2016-10-04T12:04:03.568Z,21.74
2016-10-04T12:05:03.577Z,21.59
2016-10-04T12:06:18.271Z,21.71
2016-10-04T12:07:04.151Z,21.91
2016-10-04T12:08:03.723Z,21.9
2016-10-04T12:09:18.121Z,21.98
2016-10-04T12:10:03.540Z,21.92
2016-10-04T12:11:03.389Z,21.9
2016-10-04T12:12:03.353Z,21.79
2016-10-04T12:13:03.316Z,21.97
2016-10-04T12:14:03.270Z,22.04
2016-10-04T12:16:03.280Z,22.37
2016-10-04T12:17:03.332Z,22.69
2016-10-04T12:19:03.219Z,22.32
2016-10-04T12:20:03.150Z,22.19
2016-10-04T12:21:03.316Z,21.91
2016-10-04T12:22:03.176Z,21.9
2016-10-04T12:23:03.101Z,21.69
2016-10-04T12:24:03.184Z,21.64
2016-10-04T12:25:03.400Z,21.64
2016-10-04T12:26:17.679Z,21.64
2016-10-04T12:27:02.966Z,21.57
2016-10-04T12:29:02.870Z,21.29
2016-10-04T12:30:03.171Z,21.57
2016-10-04T12:31:17.522Z,23.08
2016-10-04T12:32:02.829Z,24.42
2016-10-04T12:33:10.115Z,25.42
2016-10-04T12:34:02.834Z,24.52
2016-10-04T12:35:02.974Z,23.76
2016-10-04T12:36:02.880Z,23.38
2016-10-04T12:37:02.806Z,23.15
2016-10-04T12:38:02.793Z,22.84
2016-10-04T12:39:02.943Z,22.77
2016-10-04T12:40:09.249Z,22.74
2016-10-04T12:41:03.146Z,22.67
2016-10-04T12:42:02.590Z,22.9
2016-10-04T12:43:02.989Z,22.82
2016-10-04T12:44:12.821Z,22.71
2016-10-04T12:46:17.463Z,22.5
2016-10-04T12:47:03.212Z,22.47
2016-10-04T12:48:02.751Z,22.54
2016-10-04T12:49:02.438Z,22.53
2016-10-04T12:50:02.401Z,22.57
2016-10-04T12:51:03.128Z,22.53
2016-10-04T12:52:02.649Z,22.54
2016-10-04T12:53:17.003Z,22.49
2016-10-04T12:54:02.240Z,22.54
2016-10-04T12:55:02.315Z,22.78
2016-10-04T12:57:02.187Z,23.82
2016-10-04T12:58:17.116Z,23.89
2016-10-04T12:59:02.113Z,23.89
2016-10-04T13:00:02.232Z,23.71
2016-10-04T13:01:02.183Z,23.62
2016-10-04T13:02:02.660Z,23.42
2016-10-04T13:03:02.033Z,23.67
2016-10-04T13:04:01.984Z,23.64
2016-10-04T13:05:01.963Z,23.65
2016-10-04T13:06:01.890Z,23.47
2016-10-04T13:07:01.829Z,23.09
2016-10-04T13:08:01.875Z,22.83
2016-10-04T13:09:01.960Z,22.72
2016-10-04T13:10:01.820Z,22.49
2016-10-04T13:11:01.849Z,22.41
2016-10-04T13:12:01.884Z,22.67
2016-10-04T13:13:01.700Z,22.72
2016-10-04T13:14:02.324Z,22.57
2016-10-04T13:15:01.649Z,23.08
2016-10-04T13:16:02.562Z,23.52
2016-10-04T13:17:01.665Z,23.98
2016-10-04T13:18:01.761Z,24.13
2016-10-04T13:19:01.574Z,24.34
2016-10-04T13:20:01.524Z,25.15
2016-10-04T13:21:02.865Z,26.44
2016-10-04T13:22:16.234Z,28.28
2016-10-04T13:23:01.807Z,29.45
2016-10-04T13:24:01.560Z,30.87
2016-10-04T13:25:16.150Z,30.72
2016-10-04T13:27:01.398Z,29.52
2016-10-04T13:28:01.687Z,28.87
2016-10-04T13:29:01.614Z,28.47
2016-10-04T13:30:01.278Z,28.07
2016-10-04T13:31:01.319Z,28.26
2016-10-04T13:32:03.392Z,29.74
2016-10-04T13:33:01.208Z,30.86
2016-10-04T13:34:16.196Z,31.38
2016-10-04T13:35:01.187Z,32.24
2016-10-04T13:36:30.593Z,33.73
2016-10-04T13:37:01.603Z,33.71
2016-10-04T13:38:16.176Z,31.65
2016-10-04T13:39:01.299Z,30.72
2016-10-04T13:40:01.130Z,29.65
2016-10-04T13:41:01.131Z,29.06
2016-10-04T13:42:01.343Z,28.22
2016-10-04T13:43:01.186Z,27.59
2016-10-04T13:44:00.961Z,27.17
2016-10-04T13:46:01.066Z,26.84
2016-10-04T13:47:15.647Z,28.85
2016-10-04T13:48:01.492Z,30.4
2016-10-04T13:49:01.023Z,30.19
2016-10-04T13:50:01.060Z,30.67
2016-10-04T13:51:00.914Z,29.66
2016-10-04T13:52:01.322Z,28.7
2016-10-04T13:53:01.006Z,28.11
2016-10-04T13:54:00.927Z,27.59
2016-10-04T13:55:00.744Z,27.05
2016-10-04T13:56:15.400Z,27.04
2016-10-04T13:57:00.804Z,26.57
2016-10-04T13:58:15.642Z,26.29
2016-10-04T13:59:00.655Z,26.06
2016-10-04T14:00:01.353Z,25.71
2016-10-04T14:01:00.901Z,25.31
2016-10-04T14:02:00.551Z,25.19
2016-10-04T14:03:00.575Z,25.15
2016-10-04T14:04:00.870Z,24.79
2016-10-04T14:05:00.879Z,24.52
2016-10-04T14:06:01.536Z,24.52
2016-10-04T14:07:01.049Z,24.19
2016-10-04T14:08:00.609Z,24.14
2016-10-04T14:09:00.594Z,23.86
2016-10-04T14:10:00.753Z,23.71
2016-10-04T14:11:00.856Z,23.43
2016-10-04T14:12:00.482Z,23.32
2016-10-04T14:14:38.106Z,22.99
2016-10-04T14:15:23.372Z,23.07
2016-10-04T14:16:38.035Z,22.96
2016-10-04T14:17:23.288Z,23.08
2016-10-04T14:22:33.024Z,22.62
2016-10-04T14:23:33.162Z,22.5
2016-10-04T14:24:32.769Z,22.14
2016-10-04T14:25:48.034Z,22.09
2016-10-04T14:26:33.128Z,22.04
2016-10-04T14:27:32.722Z,21.95
2016-10-04T14:28:32.740Z,22.06
2016-10-04T14:29:32.611Z,21.92
2016-10-04T14:30:32.885Z,21.78
2016-10-04T14:34:04.489Z,21.29
2016-10-04T14:35:04.352Z,21.39
2016-10-04T14:36:04.357Z,21.32
2016-10-04T14:37:04.282Z,21.42
2016-10-04T14:38:04.371Z,21.34
2016-10-04T14:39:04.274Z,21.34
2016-10-04T14:40:18.939Z,21.41
2016-10-04T14:41:04.230Z,21.34
2016-10-04T14:42:04.220Z,21.36
2016-10-04T14:43:04.188Z,21.46
2016-10-04T14:44:04.119Z,21.51
2016-10-04T14:45:04.144Z,21.46
2016-10-04T14:46:04.061Z,21.44
2016-10-04T14:47:05.758Z,21.5
2016-10-04T14:48:04.021Z,21.42
2016-10-04T14:49:04.051Z,21.54
2016-10-04T14:50:04.626Z,21.64
2016-10-04T14:51:04.054Z,21.64
2016-10-04T14:52:03.921Z,21.54
2016-10-04T14:54:03.873Z,21.53
2016-10-04T14:55:03.833Z,21.56
2016-10-04T14:56:03.888Z,21.63
2016-10-04T14:57:03.772Z,21.81
2016-10-04T14:58:03.787Z,21.94
2016-10-04T14:59:03.743Z,21.83
2016-10-04T15:00:03.696Z,21.88
2016-10-04T15:01:18.463Z,21.54
2016-10-04T15:02:03.617Z,21.39
2016-10-04T15:03:03.789Z,21.39
2016-10-04T15:04:03.603Z,21.29
2016-10-04T15:06:03.620Z,21.21
2016-10-04T15:07:03.521Z,21.05
2016-10-04T15:08:03.481Z,20.93
2016-10-04T15:09:03.880Z,20.98
2016-10-04T15:10:03.513Z,20.91
2016-10-04T15:11:03.418Z,20.81
2016-10-04T15:12:03.485Z,20.74
2016-10-04T15:13:03.475Z,20.64
2016-10-04T15:14:03.792Z,20.96
2016-10-04T15:15:18.359Z,20.87
2016-10-04T15:16:18.124Z,20.76
2016-10-04T15:17:17.936Z,20.84
2016-10-04T15:18:17.909Z,20.83
2016-10-04T15:19:17.897Z,20.93
2016-10-04T15:20:03.695Z,21.08
2016-10-04T15:21:18.151Z,21.17
2016-10-04T15:22:03.604Z,21.11
2016-10-04T15:23:03.519Z,21.14
2016-10-04T15:24:03.432Z,21.26
2016-10-04T15:25:03.692Z,21.17
2016-10-04T15:26:03.652Z,21.05
2016-10-04T15:27:02.957Z,20.81
2016-10-04T15:28:02.980Z,20.81
2016-10-04T15:29:02.930Z,20.69
2016-10-04T15:30:02.982Z,20.8
2016-10-04T15:31:02.915Z,20.74
2016-10-04T15:32:03.232Z,20.86
2016-10-04T15:33:02.881Z,20.83
2016-10-04T15:34:02.781Z,20.72
2016-10-04T15:35:02.884Z,20.71
2016-10-04T15:36:02.781Z,20.74
2016-10-04T15:37:03.721Z,20.72
2016-10-04T15:38:02.704Z,20.65
2016-10-04T15:39:02.879Z,20.65
2016-10-04T15:40:02.990Z,20.71
2016-10-04T15:41:02.753Z,20.56
2016-10-04T15:42:02.620Z,20.71
2016-10-04T15:43:02.704Z,20.76
2016-10-04T15:44:02.892Z,20.66
2016-10-04T15:45:02.926Z,20.74
2016-10-04T15:46:02.672Z,20.68
2016-10-04T15:47:02.761Z,20.53
2016-10-04T15:48:03.759Z,20.59
2016-10-04T15:49:02.612Z,20.53
2016-10-04T15:50:03.113Z,20.38
2016-10-04T15:51:02.674Z,20.33
2016-10-04T15:52:02.605Z,20.42
2016-10-04T15:53:17.017Z,20.49
2016-10-04T15:54:02.295Z,20.39